createdAt,value
2023-05-22T00:01:39.098Z,18.30
2023-05-22T00:04:05.767Z,18.20
2023-05-22T00:06:34.026Z,18.00
2023-05-22T00:09:00.740Z,17.90
2023-05-22T00:11:27.417Z,17.80
2023-05-22T00:13:54.080Z,17.70
2023-05-22T00:16:20.780Z,17.70
2023-05-22T00:18:47.563Z,17.70
2023-05-22T00:21:14.362Z,17.70
2023-05-22T00:23:41.492Z,17.70
2023-05-22T00:26:08.212Z,17.60
2023-05-22T00:28:34.895Z,17.50
2023-05-22T00:31:01.615Z,17.50
2023-05-22T00:33:28.258Z,17.50
2023-05-22T00:35:54.929Z,17.40
2023-05-22T00:38:29.720Z,17.40
2023-05-22T00:40:56.489Z,17.50
2023-05-22T00:43:23.225Z,17.40
2023-05-22T00:45:49.947Z,17.40
2023-05-22T00:48:16.988Z,17.40
2023-05-22T00:50:43.673Z,17.20
2023-05-22T00:53:10.577Z,17.20
2023-05-22T00:55:37.273Z,17.10
2023-05-22T00:58:07.504Z,17.10
2023-05-22T01:00:38.132Z,17.10
2023-05-22T01:03:05.592Z,17.10
2023-05-22T01:05:32.388Z,17.10
2023-05-22T01:07:59.024Z,17.20
2023-05-22T01:10:26.024Z,17.20
2023-05-22T01:12:59.920Z,17.10
2023-05-22T01:15:32.005Z,17.10
2023-05-22T01:18:19.546Z,17.10
2023-05-22T01:21:06.424Z,17.10
2023-05-22T01:23:55.269Z,17.00
2023-05-22T01:26:32.112Z,17.00
2023-05-22T01:29:01.584Z,17.00
2023-05-22T01:31:29.079Z,17.00
2023-05-22T01:33:56.832Z,17.00
2023-05-22T01:36:34.988Z,17.00
2023-05-22T01:39:04.458Z,17.00
2023-05-22T01:41:31.127Z,17.00
2023-05-22T01:43:57.757Z,17.00
2023-05-22T01:46:28.874Z,16.90
2023-05-22T01:48:56.112Z,16.90
2023-05-22T01:51:39.987Z,16.80
2023-05-22T01:54:28.085Z,16.80
2023-05-22T01:57:04.032Z,16.70
2023-05-22T01:59:45.697Z,16.60
2023-05-22T02:02:13.510Z,16.50
2023-05-22T02:04:42.854Z,16.50
2023-05-22T02:07:12.331Z,16.50
2023-05-22T02:09:39.246Z,16.50
2023-05-22T02:12:06.283Z,16.50
2023-05-22T02:14:32.942Z,16.60
2023-05-22T02:17:02.296Z,16.50
2023-05-22T02:19:29.105Z,16.60
2023-05-22T02:21:55.875Z,16.50
2023-05-22T02:24:23.606Z,16.50
2023-05-22T02:26:50.255Z,16.50
2023-05-22T02:29:16.967Z,16.50
2023-05-22T02:31:43.689Z,16.40
2023-05-22T02:34:11.100Z,16.40
2023-05-22T02:36:37.771Z,16.40
2023-05-22T02:39:05.192Z,16.30
2023-05-22T02:41:31.847Z,16.30
2023-05-22T02:43:58.505Z,16.30
2023-05-22T02:46:25.306Z,16.30
2023-05-22T02:48:51.955Z,16.30
2023-05-22T02:51:18.614Z,16.30
2023-05-22T02:53:45.261Z,16.20
2023-05-22T02:56:12.055Z,16.20
2023-05-22T02:58:39.276Z,16.20
2023-05-22T03:01:09.052Z,16.20
2023-05-22T03:03:35.980Z,16.10
2023-05-22T03:06:04.078Z,16.20
2023-05-22T03:08:31.626Z,16.10
2023-05-22T03:10:58.982Z,16.00
2023-05-22T03:13:25.625Z,16.00
2023-05-22T03:15:52.354Z,16.00
2023-05-22T03:18:19.080Z,15.90
2023-05-22T03:20:45.755Z,15.90
2023-05-22T03:23:13.345Z,15.90
2023-05-22T03:25:40.003Z,16.00
2023-05-22T03:28:06.684Z,16.10
2023-05-22T03:30:33.975Z,16.20
2023-05-22T03:33:00.680Z,16.20
2023-05-22T03:35:27.345Z,16.20
2023-05-22T03:37:53.986Z,16.20
2023-05-22T03:40:20.637Z,16.20
2023-05-22T03:42:47.422Z,16.30
2023-05-22T03:45:14.097Z,16.20
2023-05-22T03:47:40.815Z,16.30
2023-05-22T03:50:07.736Z,16.20
2023-05-22T03:52:34.406Z,16.30
2023-05-22T03:55:01.893Z,16.30
2023-05-22T03:57:28.564Z,16.40
2023-05-22T03:59:55.255Z,16.50
2023-05-22T04:02:22.053Z,16.70
2023-05-22T04:04:48.883Z,16.80
2023-05-22T04:07:18.388Z,16.90
2023-05-22T04:09:45.324Z,17.00
2023-05-22T04:12:11.982Z,17.00
2023-05-22T04:14:38.626Z,17.00
2023-05-22T04:17:05.299Z,17.20
2023-05-22T04:19:31.994Z,17.20
2023-05-22T04:21:59.043Z,17.40
2023-05-22T04:24:25.795Z,17.40
2023-05-22T04:26:52.742Z,17.60
2023-05-22T04:29:20.441Z,17.60
2023-05-22T04:31:47.783Z,17.70
2023-05-22T04:34:15.564Z,17.70
2023-05-22T04:36:44.987Z,17.70
2023-05-22T04:39:11.676Z,17.90
2023-05-22T04:41:39.054Z,18.10
2023-05-22T04:44:06.755Z,18.30
2023-05-22T04:46:34.426Z,18.30
2023-05-22T04:49:02.048Z,18.40
2023-05-22T04:51:29.846Z,18.50
2023-05-22T04:53:58.278Z,18.60
2023-05-22T04:56:35.401Z,18.60
2023-05-22T04:59:04.576Z,18.70
2023-05-22T05:01:33.241Z,18.80
2023-05-22T05:04:00.675Z,19.10
2023-05-22T05:06:27.524Z,19.30
2023-05-22T05:08:54.986Z,19.50
2023-05-22T05:11:21.744Z,19.70
2023-05-22T05:13:48.412Z,19.70
2023-05-22T05:16:15.099Z,19.80
2023-05-22T05:18:41.766Z,19.80
2023-05-22T05:21:08.997Z,19.90
2023-05-22T05:23:36.217Z,19.90
2023-05-22T05:26:02.895Z,19.90
2023-05-22T05:28:29.561Z,20.10
2023-05-22T05:30:57.638Z,20.30
2023-05-22T05:33:24.321Z,20.60
2023-05-22T05:35:52.622Z,20.60
2023-05-22T05:38:19.431Z,20.70
2023-05-22T05:40:46.940Z,20.70
2023-05-22T05:43:16.409Z,20.60
2023-05-22T05:45:43.779Z,20.50
2023-05-22T05:48:11.786Z,20.50
2023-05-22T05:50:38.942Z,20.50
2023-05-22T05:53:06.204Z,20.40
2023-05-22T05:55:34.560Z,20.50
2023-05-22T05:58:01.371Z,20.30
2023-05-22T06:00:28.150Z,20.20
2023-05-22T06:02:54.948Z,20.20
2023-05-22T06:05:22.390Z,20.20
2023-05-22T06:07:49.639Z,20.20
2023-05-22T06:10:16.517Z,20.40
2023-05-22T06:12:43.325Z,20.40
2023-05-22T06:15:09.998Z,20.50
2023-05-22T06:17:37.441Z,20.50
2023-05-22T06:20:06.857Z,20.50
2023-05-22T06:22:33.554Z,20.60
2023-05-22T06:25:00.242Z,20.70
2023-05-22T06:27:27.774Z,20.80
2023-05-22T06:29:55.634Z,20.90
2023-05-22T06:32:23.193Z,20.90
2023-05-22T06:34:49.993Z,21.10
2023-05-22T06:37:16.888Z,21.10
2023-05-22T06:39:43.571Z,21.40
2023-05-22T06:42:10.261Z,22.40
2023-05-22T06:44:36.977Z,23.30
2023-05-22T06:47:03.717Z,23.80
2023-05-22T06:49:30.482Z,24.80
2023-05-22T06:51:57.160Z,25.60
2023-05-22T06:54:23.889Z,26.20
2023-05-22T06:56:50.561Z,26.00
2023-05-22T06:59:18.587Z,25.80
2023-05-22T07:01:45.419Z,25.40
2023-05-22T07:04:13.333Z,25.30
2023-05-22T07:06:41.477Z,25.70
2023-05-22T07:09:08.732Z,26.50
2023-05-22T07:11:38.056Z,27.10
2023-05-22T07:14:04.925Z,27.90
2023-05-22T07:16:31.716Z,28.70
2023-05-22T07:18:58.486Z,29.40
2023-05-22T07:21:25.184Z,29.70
2023-05-22T07:23:52.356Z,29.70
2023-05-22T07:26:19.239Z,30.00
2023-05-22T07:28:45.978Z,30.10
2023-05-22T07:31:12.639Z,30.30
2023-05-22T07:33:39.285Z,30.50
2023-05-22T07:36:06.364Z,30.10
2023-05-22T07:38:33.064Z,29.00
2023-05-22T07:40:59.704Z,28.30
2023-05-22T07:43:26.345Z,27.80
2023-05-22T07:45:54.282Z,27.60
2023-05-22T07:48:21.052Z,27.40
2023-05-22T07:50:47.871Z,27.30
2023-05-22T07:53:16.323Z,27.00
2023-05-22T07:55:42.997Z,27.00
2023-05-22T07:58:10.746Z,27.00
2023-05-22T08:00:37.437Z,27.50
2023-05-22T08:03:04.449Z,28.10
2023-05-22T08:05:31.399Z,28.40
2023-05-22T08:07:58.073Z,28.80
2023-05-22T08:10:25.480Z,29.60
2023-05-22T08:12:53.517Z,30.10
2023-05-22T08:15:20.388Z,30.30
2023-05-22T08:17:47.578Z,30.60
2023-05-22T08:20:14.601Z,30.70
2023-05-22T08:22:41.851Z,30.80
2023-05-22T08:25:09.196Z,30.80
2023-05-22T08:27:35.951Z,31.00
2023-05-22T08:30:04.354Z,30.70
2023-05-22T08:32:31.368Z,30.50
2023-05-22T08:34:59.271Z,30.00
2023-05-22T08:37:26.134Z,29.70
2023-05-22T08:39:52.793Z,29.30
2023-05-22T08:42:19.448Z,29.00
2023-05-22T08:44:47.466Z,29.00
2023-05-22T08:47:15.125Z,28.90
2023-05-22T08:49:41.911Z,28.80
2023-05-22T08:52:23.260Z,28.50
2023-05-22T08:54:53.122Z,28.60
2023-05-22T08:57:20.478Z,28.30
2023-05-22T08:59:47.273Z,28.60
2023-05-22T09:02:13.946Z,28.90
2023-05-22T09:04:41.489Z,29.00
2023-05-22T09:07:09.137Z,28.90
2023-05-22T09:09:41.961Z,28.70
2023-05-22T09:12:09.536Z,28.50
2023-05-22T09:14:42.870Z,28.60
2023-05-22T09:17:11.877Z,28.90
2023-05-22T09:19:42.576Z,29.20
2023-05-22T09:22:09.287Z,29.30
2023-05-22T09:24:40.728Z,29.30
2023-05-22T09:27:07.487Z,29.30
2023-05-22T09:29:55.349Z,29.20
2023-05-22T09:32:22.207Z,29.30
2023-05-22T09:34:49.321Z,29.50
2023-05-22T09:37:18.848Z,29.60
2023-05-22T09:39:46.465Z,29.60
2023-05-22T09:42:15.051Z,29.80
2023-05-22T09:44:42.684Z,29.90
2023-05-22T09:47:10.017Z,30.00
2023-05-22T09:49:43.317Z,30.00
2023-05-22T09:52:12.367Z,29.80
2023-05-22T09:54:55.478Z,29.70
2023-05-22T09:57:24.006Z,29.70
2023-05-22T09:59:54.979Z,29.70
2023-05-22T10:02:22.821Z,29.70
2023-05-22T10:04:55.699Z,29.60
2023-05-22T10:07:23.287Z,29.60
2023-05-22T10:09:59.770Z,29.90
2023-05-22T10:12:26.413Z,29.80
2023-05-22T10:14:53.081Z,29.60
2023-05-22T10:17:19.738Z,29.50
2023-05-22T10:19:46.946Z,29.50
2023-05-22T10:22:20.569Z,29.50
2023-05-22T10:24:50.256Z,29.70
2023-05-22T10:27:16.891Z,29.80
2023-05-22T10:30:06.547Z,29.60
2023-05-22T10:32:41.055Z,29.40
2023-05-22T10:35:37.238Z,29.90
2023-05-22T10:38:06.846Z,30.40
2023-05-22T10:40:33.803Z,30.60
2023-05-22T10:43:01.594Z,30.60
2023-05-22T10:45:28.975Z,30.60
2023-05-22T10:48:03.373Z,30.70
2023-05-22T10:50:30.118Z,30.60
2023-05-22T10:53:20.115Z,30.40
2023-05-22T10:55:48.207Z,30.10
2023-05-22T10:58:16.058Z,30.00
2023-05-22T11:00:42.933Z,29.90
2023-05-22T11:03:17.859Z,29.80
2023-05-22T11:05:45.105Z,30.00
2023-05-22T11:08:12.328Z,30.20
2023-05-22T11:10:59.130Z,30.50
2023-05-22T11:13:29.134Z,30.60
2023-05-22T11:15:59.047Z,30.30
2023-05-22T11:18:28.597Z,30.00
2023-05-22T11:20:55.256Z,29.90
2023-05-22T11:23:23.764Z,30.20
2023-05-22T11:25:50.533Z,30.50
2023-05-22T11:28:17.181Z,30.00
2023-05-22T11:30:43.861Z,30.10
2023-05-22T11:33:10.888Z,30.40
2023-05-22T11:35:37.531Z,30.20
2023-05-22T11:38:04.837Z,29.80
2023-05-22T11:40:31.503Z,29.80
2023-05-22T11:42:58.156Z,29.60
2023-05-22T11:45:25.218Z,29.60
2023-05-22T11:47:51.932Z,29.10
2023-05-22T11:50:29.264Z,29.20
2023-05-22T11:52:56.540Z,29.40
2023-05-22T11:55:23.246Z,29.40
2023-05-22T11:57:49.894Z,29.60
2023-05-22T12:00:17.244Z,29.80
2023-05-22T12:02:47.715Z,30.00
2023-05-22T12:05:15.877Z,30.10
2023-05-22T12:07:42.586Z,30.00
2023-05-22T12:10:09.501Z,30.00
2023-05-22T12:12:36.776Z,29.70
2023-05-22T12:15:08.445Z,30.00
2023-05-22T12:17:38.527Z,30.40
2023-05-22T12:20:06.259Z,30.60
2023-05-22T12:22:33.052Z,30.80
2023-05-22T12:24:59.779Z,30.70
2023-05-22T12:27:31.041Z,30.60
2023-05-22T12:29:59.554Z,30.50
2023-05-22T12:32:27.006Z,30.50
2023-05-22T12:34:57.901Z,30.60
2023-05-22T12:37:28.420Z,30.50
2023-05-22T12:39:56.287Z,30.60
2023-05-22T12:42:22.994Z,30.60
2023-05-22T12:44:52.095Z,30.20
2023-05-22T12:47:18.893Z,29.70
2023-05-22T12:49:45.544Z,29.60
2023-05-22T12:52:13.062Z,29.50
2023-05-22T12:54:39.723Z,29.50
2023-05-22T12:57:06.421Z,29.30
2023-05-22T12:59:33.773Z,29.00
2023-05-22T13:02:02.310Z,28.70
2023-05-22T13:04:29.482Z,29.10
2023-05-22T13:06:56.311Z,29.30
2023-05-22T13:09:22.963Z,29.50
2023-05-22T13:11:49.660Z,29.40
2023-05-22T13:14:16.333Z,29.50
2023-05-22T13:16:43.099Z,29.30
2023-05-22T13:19:10.076Z,29.20
2023-05-22T13:21:36.863Z,29.10
2023-05-22T13:24:04.360Z,28.80
2023-05-22T13:26:31.059Z,28.70
2023-05-22T13:28:57.734Z,28.70
2023-05-22T13:31:24.465Z,28.50
2023-05-22T13:33:51.268Z,28.60
2023-05-22T13:36:18.275Z,28.60
2023-05-22T13:38:45.135Z,28.70
2023-05-22T13:41:12.090Z,28.50
2023-05-22T13:43:39.039Z,28.40
2023-05-22T13:46:05.861Z,28.20
2023-05-22T13:48:32.509Z,28.10
2023-05-22T13:50:59.484Z,28.10
2023-05-22T13:53:26.398Z,28.00
2023-05-22T13:55:54.513Z,28.10
2023-05-22T13:58:21.198Z,27.90
2023-05-22T14:00:48.016Z,27.90
2023-05-22T14:03:17.575Z,28.00
2023-05-22T14:05:44.869Z,28.00
2023-05-22T14:08:11.527Z,28.00
2023-05-22T14:10:38.688Z,28.10
2023-05-22T14:13:05.457Z,28.00
2023-05-22T14:15:32.100Z,28.10
2023-05-22T14:17:58.911Z,27.90
2023-05-22T14:20:25.596Z,27.90
2023-05-22T14:22:57.760Z,27.90
2023-05-22T14:25:25.921Z,27.70
2023-05-22T14:27:52.838Z,27.70
2023-05-22T14:30:19.728Z,27.70
2023-05-22T14:32:46.890Z,27.70
2023-05-22T14:35:13.815Z,27.80
2023-05-22T14:37:40.468Z,27.80
2023-05-22T14:40:07.794Z,27.70
2023-05-22T14:42:34.922Z,27.70
2023-05-22T14:45:01.596Z,27.80
2023-05-22T14:47:28.499Z,27.80
2023-05-22T14:49:57.608Z,27.70
2023-05-22T14:52:26.656Z,27.80
2023-05-22T14:54:53.437Z,27.70
2023-05-22T14:57:20.216Z,27.70
2023-05-22T14:59:46.878Z,27.70
2023-05-22T15:02:13.575Z,27.60
2023-05-22T15:04:40.814Z,27.40
2023-05-22T15:07:07.572Z,27.40
2023-05-22T15:09:34.247Z,27.30
2023-05-22T15:12:00.908Z,27.40
2023-05-22T15:14:28.012Z,27.40
2023-05-22T15:16:57.409Z,27.30
2023-05-22T15:19:25.464Z,26.80
2023-05-22T15:21:53.012Z,26.50
2023-05-22T15:24:20.113Z,26.00
2023-05-22T15:26:47.306Z,25.60
2023-05-22T15:29:16.575Z,25.50
2023-05-22T15:31:43.637Z,25.20
2023-05-22T15:34:10.647Z,24.90
2023-05-22T15:36:37.877Z,24.50
2023-05-22T15:39:04.899Z,24.30
2023-05-22T15:41:32.077Z,24.20
2023-05-22T15:43:59.025Z,24.10
2023-05-22T15:46:26.128Z,24.00
2023-05-22T15:48:53.225Z,23.80
2023-05-22T15:51:20.333Z,23.70
2023-05-22T15:53:47.512Z,23.70
2023-05-22T15:56:14.542Z,23.50
2023-05-22T15:58:41.849Z,23.60
2023-05-22T16:01:11.571Z,23.60
2023-05-22T16:03:38.937Z,23.50
2023-05-22T16:06:07.005Z,23.40
2023-05-22T16:08:34.224Z,23.30
2023-05-22T16:11:02.302Z,23.20
2023-05-22T16:13:29.786Z,23.10
2023-05-22T16:15:58.015Z,23.00
2023-05-22T16:18:26.177Z,22.90
2023-05-22T16:20:53.175Z,22.80
2023-05-22T16:23:20.475Z,22.70
2023-05-22T16:25:48.926Z,22.60
2023-05-22T16:28:17.455Z,22.40
2023-05-22T16:30:44.699Z,22.30
2023-05-22T16:33:12.636Z,22.20
2023-05-22T16:35:40.584Z,22.20
2023-05-22T16:38:11.917Z,22.10
2023-05-22T16:40:39.238Z,22.00
2023-05-22T16:43:09.919Z,21.90
2023-05-22T16:45:37.375Z,21.80
2023-05-22T16:48:04.535Z,21.80
2023-05-22T16:50:32.570Z,21.70
2023-05-22T16:53:00.595Z,21.70
2023-05-22T16:55:27.985Z,21.80
2023-05-22T16:57:57.734Z,21.80
2023-05-22T17:00:25.406Z,21.80
2023-05-22T17:02:53.685Z,21.90
2023-05-22T17:05:21.345Z,21.90
2023-05-22T17:07:49.895Z,21.80
2023-05-22T17:10:17.232Z,21.70
2023-05-22T17:12:44.217Z,21.60
2023-05-22T17:15:13.333Z,21.50
2023-05-22T17:17:40.507Z,21.50
2023-05-22T17:20:12.773Z,21.40
2023-05-22T17:22:40.057Z,21.40
2023-05-22T17:25:08.154Z,21.40
2023-05-22T17:27:36.598Z,21.40
2023-05-22T17:30:05.010Z,21.40
2023-05-22T17:32:31.811Z,21.40
2023-05-22T17:34:58.787Z,21.40
2023-05-22T17:37:25.555Z,21.30
2023-05-22T17:39:52.205Z,21.20
2023-05-22T17:42:18.949Z,21.20
2023-05-22T17:44:45.774Z,21.20
2023-05-22T17:47:13.391Z,21.00
2023-05-22T17:49:40.034Z,21.00
2023-05-22T17:52:08.509Z,20.80
2023-05-22T17:54:35.616Z,20.80
2023-05-22T17:57:04.049Z,20.70
2023-05-22T17:59:32.182Z,20.60
2023-05-22T18:01:59.136Z,20.60
2023-05-22T18:04:28.768Z,20.50
2023-05-22T18:06:55.424Z,20.40
2023-05-22T18:09:22.076Z,20.30
2023-05-22T18:11:51.915Z,20.20
2023-05-22T18:14:18.581Z,20.20
2023-05-22T18:16:45.501Z,20.10
2023-05-22T18:19:12.179Z,20.00
2023-05-22T18:21:38.965Z,20.00
2023-05-22T18:24:05.849Z,20.00
2023-05-22T18:26:32.704Z,20.00
2023-05-22T18:28:59.406Z,19.90
2023-05-22T18:31:26.102Z,19.90
2023-05-22T18:33:52.817Z,19.90
2023-05-22T18:36:19.620Z,19.80
2023-05-22T18:38:46.538Z,19.60
2023-05-22T18:41:13.285Z,19.50
2023-05-22T18:43:40.217Z,19.40
2023-05-22T18:46:07.053Z,19.40
2023-05-22T18:48:33.753Z,19.30
2023-05-22T18:51:00.732Z,19.20
2023-05-22T18:53:27.525Z,19.20
2023-05-22T18:55:54.306Z,19.10
2023-05-22T18:58:21.060Z,19.10
2023-05-22T19:00:47.874Z,19.10
2023-05-22T19:03:14.558Z,19.10
2023-05-22T19:05:41.462Z,19.10
2023-05-22T19:08:08.122Z,19.10
2023-05-22T19:10:34.788Z,19.20
2023-05-22T19:13:01.436Z,19.20
2023-05-22T19:15:28.217Z,19.30
2023-05-22T19:17:54.971Z,19.30
2023-05-22T19:20:22.748Z,19.30
2023-05-22T19:22:50.925Z,19.30
2023-05-22T19:25:17.796Z,19.30
2023-05-22T19:27:44.710Z,19.20
2023-05-22T19:30:11.651Z,19.20
2023-05-22T19:32:38.336Z,19.10
2023-05-22T19:35:05.268Z,19.10
2023-05-22T19:37:31.941Z,19.10
2023-05-22T19:39:58.604Z,19.00
2023-05-22T19:42:25.263Z,19.10
2023-05-22T19:44:51.900Z,19.10
2023-05-22T19:47:18.561Z,19.10
2023-05-22T19:49:45.283Z,19.10
2023-05-22T19:52:11.935Z,19.10
2023-05-22T19:54:38.766Z,19.00
2023-05-22T19:57:05.653Z,19.00
2023-05-22T19:59:34.710Z,19.00
2023-05-22T20:02:03.162Z,18.90
2023-05-22T20:04:30.340Z,18.90
2023-05-22T20:06:58.671Z,18.80
2023-05-22T20:09:26.900Z,18.80
2023-05-22T20:11:53.588Z,18.70
2023-05-22T20:14:20.561Z,18.60
2023-05-22T20:16:47.319Z,18.50
2023-05-22T20:19:14.816Z,18.40
2023-05-22T20:21:41.568Z,18.40
2023-05-22T20:24:17.356Z,18.30
2023-05-22T20:26:44.189Z,18.20
2023-05-22T20:29:11.252Z,18.10
2023-05-22T20:31:37.952Z,18.00
2023-05-22T20:34:04.754Z,17.90
2023-05-22T20:36:32.618Z,17.90
2023-05-22T20:38:59.314Z,17.80
2023-05-22T20:41:26.140Z,17.80
2023-05-22T20:43:54.394Z,17.70
2023-05-22T20:46:24.183Z,17.70
2023-05-22T20:48:51.446Z,17.60
2023-05-22T20:51:20.531Z,17.60
2023-05-22T20:53:47.958Z,17.50
2023-05-22T20:56:14.840Z,17.40
2023-05-22T20:58:42.339Z,17.40
2023-05-22T21:01:09.163Z,17.30
2023-05-22T21:03:35.911Z,17.20
2023-05-22T21:06:02.589Z,17.20
2023-05-22T21:08:29.232Z,17.10
2023-05-22T21:10:55.943Z,17.00
2023-05-22T21:13:22.785Z,17.00
2023-05-22T21:15:49.521Z,17.00
2023-05-22T21:18:16.265Z,16.90
2023-05-22T21:20:42.947Z,16.90
2023-05-22T21:23:09.650Z,16.80
2023-05-22T21:25:36.546Z,16.80
2023-05-22T21:28:03.297Z,16.80
2023-05-22T21:30:30.055Z,16.80
2023-05-22T21:32:56.760Z,16.70
2023-05-22T21:35:23.445Z,16.70
2023-05-22T21:37:50.084Z,16.70
2023-05-22T21:40:16.813Z,16.70
2023-05-22T21:42:46.540Z,16.70
2023-05-22T21:45:14.136Z,16.70
2023-05-22T21:47:41.089Z,16.80
2023-05-22T21:50:07.955Z,16.80
2023-05-22T21:52:34.606Z,16.80
2023-05-22T21:55:02.376Z,16.80
2023-05-22T21:57:29.104Z,16.90
2023-05-22T21:59:55.799Z,16.90
2023-05-22T22:02:22.511Z,16.90
2023-05-22T22:04:49.170Z,16.80
2023-05-22T22:07:15.993Z,16.80
2023-05-22T22:09:42.688Z,16.80
2023-05-22T22:12:09.347Z,16.80
2023-05-22T22:14:35.978Z,16.90
2023-05-22T22:17:05.647Z,16.90
2023-05-22T22:19:34.260Z,16.90
2023-05-22T22:22:01.552Z,16.80
2023-05-22T22:24:28.802Z,16.80
2023-05-22T22:26:55.463Z,16.70
2023-05-22T22:29:22.115Z,16.70
2023-05-22T22:31:48.854Z,16.60
2023-05-22T22:34:15.606Z,16.60
2023-05-22T22:36:42.363Z,16.50
2023-05-22T22:39:09.029Z,16.50
2023-05-22T22:41:35.670Z,16.50
2023-05-22T22:44:02.685Z,16.40
2023-05-22T22:46:29.355Z,16.40
2023-05-22T22:48:56.042Z,16.40
2023-05-22T22:51:24.560Z,16.30
2023-05-22T22:53:51.245Z,16.30
2023-05-22T22:56:17.959Z,16.30
2023-05-22T22:58:44.611Z,16.20
2023-05-22T23:01:11.267Z,16.20
2023-05-22T23:03:37.968Z,16.10
2023-05-22T23:06:04.635Z,16.10
2023-05-22T23:08:31.289Z,16.10
2023-05-22T23:10:57.951Z,16.00
2023-05-22T23:13:24.654Z,15.90
2023-05-22T23:15:51.623Z,15.80
2023-05-22T23:18:18.437Z,15.80
2023-05-22T23:20:45.264Z,15.70
2023-05-22T23:23:11.931Z,15.70
2023-05-22T23:25:38.699Z,15.60
2023-05-22T23:28:06.570Z,15.50
2023-05-22T23:30:33.226Z,15.50
2023-05-22T23:33:02.353Z,15.40
2023-05-22T23:35:29.052Z,15.40
2023-05-22T23:37:55.922Z,15.30
2023-05-22T23:40:22.653Z,15.30
2023-05-22T23:42:49.368Z,15.40
2023-05-22T23:45:16.131Z,15.40
2023-05-22T23:47:42.823Z,15.40
2023-05-22T23:50:09.984Z,15.40
2023-05-22T23:52:36.629Z,15.50
2023-05-22T23:55:03.322Z,15.50
2023-05-22T23:57:30.644Z,15.60
2023-05-22T23:59:57.316Z,15.60
